createdAt,value
2018-04-18T00:48:29.078Z,58.42
2018-04-18T00:51:02.356Z,58.71
2018-04-18T00:53:35.598Z,58.65
2018-04-18T00:56:08.871Z,58.50
2018-04-18T00:58:42.124Z,58.42
2018-04-18T02:32:19.959Z,61.77
2018-04-18T02:34:53.229Z,61.75
2018-04-18T02:37:27.264Z,61.91
2018-04-18T02:40:00.520Z,61.98
2018-04-18T02:42:33.795Z,62.21
2018-04-18T02:45:07.051Z,62.23
2018-04-18T03:46:12.895Z,63.21
2018-04-18T03:48:46.172Z,63.34
2018-04-18T03:51:19.440Z,63.35
2018-04-18T03:53:52.709Z,63.41
2018-04-18T03:56:25.960Z,63.39
2018-04-18T03:58:59.232Z,63.48
2018-04-18T04:30:54.308Z,64.68
2018-04-18T04:33:27.561Z,64.48
2018-04-18T04:36:00.840Z,64.42
2018-04-18T04:38:34.087Z,64.41
2018-04-18T04:41:07.363Z,64.50
2018-04-18T04:43:40.608Z,64.27
2018-04-18T04:46:14.648Z,64.25
2018-04-18T04:48:47.899Z,64.41
2018-04-18T04:51:21.940Z,64.47
2018-04-18T04:53:55.193Z,64.36
2018-04-18T04:56:28.501Z,64.36
2018-04-18T04:59:01.721Z,64.42
2018-04-18T05:01:34.996Z,64.51
2018-04-18T05:04:09.018Z,64.30
2018-04-18T05:06:43.083Z,64.32
2018-04-18T05:09:16.331Z,64.33
2018-04-18T05:11:49.607Z,64.35
2018-04-18T05:14:23.622Z,64.41
2018-04-18T05:16:56.928Z,64.33
2018-04-18T05:19:30.955Z,64.36
2018-04-18T05:22:04.234Z,64.22
2018-04-18T05:24:38.269Z,64.17
2018-04-18T05:27:11.519Z,64.14
2018-04-18T05:29:45.564Z,64.12
2018-04-18T05:32:18.819Z,64.32
2018-04-18T05:34:52.867Z,64.45
2018-04-18T05:37:26.120Z,64.56
2018-04-18T05:39:59.396Z,64.55
2018-04-18T05:42:32.647Z,64.58
2018-04-18T05:45:05.919Z,64.67
2018-04-18T05:47:39.960Z,64.65
2018-04-18T05:50:13.232Z,64.71
2018-04-18T05:52:46.495Z,64.48
2018-04-18T05:55:19.843Z,64.40
2018-04-18T05:57:53.055Z,64.34
2018-04-18T06:00:26.326Z,64.37
2018-04-18T06:02:59.583Z,64.32
2018-04-18T06:05:32.863Z,64.44
2018-04-18T06:08:06.122Z,64.44
2018-04-18T06:10:39.387Z,64.41
2018-04-18T06:13:12.647Z,64.39
2018-04-18T06:15:45.928Z,64.47
2018-04-18T06:18:19.184Z,64.58
2018-04-18T06:20:52.464Z,65.13
2018-04-18T06:23:25.715Z,64.87
2018-04-18T06:25:58.994Z,64.81
2018-04-18T06:28:33.012Z,64.76
2018-04-18T07:03:26.892Z,62.80
2018-04-18T07:06:00.139Z,62.49
2018-04-18T07:08:33.395Z,62.30
2018-04-18T07:11:07.550Z,62.06
2018-04-18T07:13:40.832Z,61.74
2018-04-18T08:01:47.997Z,56.71
2018-04-18T08:04:21.267Z,56.80
2018-04-18T08:06:54.546Z,55.77
2018-04-18T08:09:28.557Z,55.92
2018-04-18T08:12:01.843Z,56.00
2018-04-18T08:14:35.859Z,55.73
2018-04-18T09:02:42.726Z,48.64
2018-04-18T09:05:15.976Z,48.51
2018-04-18T09:07:50.127Z,47.13
2018-04-18T09:10:23.387Z,45.33
2018-04-18T09:12:57.433Z,45.67
2018-04-18T10:01:02.495Z,42.15
2018-04-18T10:03:35.776Z,41.43
2018-04-18T10:06:09.033Z,41.10
2018-04-18T10:08:42.314Z,41.87
2018-04-18T10:11:16.332Z,42.69
2018-04-18T10:13:50.368Z,43.20
2018-04-18T11:01:55.157Z,40.47
2018-04-18T11:04:28.411Z,39.36
2018-04-18T11:07:01.695Z,39.34
2018-04-18T11:09:34.940Z,39.39
2018-04-18T11:12:08.215Z,39.39
2018-04-18T12:02:45.579Z,30.89
2018-04-18T12:05:18.831Z,28.90
2018-04-18T12:07:52.107Z,29.93
2018-04-18T12:10:25.371Z,28.52
2018-04-18T12:12:58.658Z,30.12
2018-04-18T13:01:02.632Z,26.59
2018-04-18T13:03:35.905Z,27.25
2018-04-18T13:06:09.158Z,26.31
2018-04-18T13:08:42.419Z,25.93
2018-04-18T13:11:15.692Z,25.78
2018-04-18T13:13:48.955Z,24.73
2018-04-18T14:01:52.803Z,23.04
2018-04-18T14:04:26.380Z,22.94
2018-04-18T14:06:59.630Z,22.84
2018-04-18T14:09:32.909Z,22.19
2018-04-18T14:12:06.164Z,22.01
2018-04-18T14:14:39.440Z,22.19
2018-04-18T14:46:29.440Z,20.51
2018-04-18T14:49:02.752Z,20.06
2018-04-18T14:51:36.733Z,19.89
2018-04-18T14:54:09.985Z,19.18
2018-04-18T14:56:43.265Z,18.66
2018-04-18T14:59:16.525Z,18.12
2018-04-18T15:31:08.289Z,15.95
2018-04-18T15:33:42.343Z,15.95
2018-04-18T15:36:15.593Z,16.30
2018-04-18T15:38:49.633Z,16.68
2018-04-18T15:41:22.888Z,16.73
2018-04-18T15:43:56.164Z,16.80
2018-04-18T15:46:29.420Z,16.82
2018-04-18T15:49:02.694Z,16.62
2018-04-18T15:51:36.728Z,16.66
2018-04-18T15:54:09.994Z,16.93
2018-04-18T15:56:44.016Z,17.25
2018-04-18T15:59:17.300Z,17.36
2018-04-18T16:01:50.559Z,17.36
2018-04-18T16:04:23.837Z,18.41
2018-04-18T16:06:57.091Z,18.95
2018-04-18T16:09:30.370Z,18.63
2018-04-18T16:12:04.401Z,18.41
2018-04-18T16:14:37.671Z,18.25
2018-04-18T16:17:11.701Z,17.94
2018-04-18T16:19:44.967Z,18.13
2018-04-18T16:22:18.217Z,18.04
2018-04-18T16:24:51.500Z,18.52
2018-04-18T16:27:24.761Z,18.90
2018-04-18T16:29:58.812Z,19.67
2018-04-18T16:32:32.105Z,20.33
2018-04-18T16:35:05.356Z,20.78
2018-04-18T16:37:39.375Z,20.88
2018-04-18T16:40:13.415Z,20.83
2018-04-18T16:42:46.673Z,20.69
2018-04-18T16:45:19.962Z,20.62
2018-04-18T16:47:53.208Z,20.66
2018-04-18T16:50:26.476Z,20.27
2018-04-18T16:52:59.735Z,20.28
2018-04-18T16:55:33.005Z,20.52
2018-04-18T16:58:06.284Z,20.66
2018-04-18T17:00:39.560Z,20.74
2018-04-18T17:03:12.859Z,20.79
2018-04-18T17:05:46.122Z,20.63
2018-04-18T17:08:41.715Z,20.37
2018-04-18T17:11:14.971Z,20.60
2018-04-18T17:13:48.240Z,20.55
2018-04-18T17:16:22.260Z,20.75
2018-04-18T17:18:55.547Z,20.68
2018-04-18T17:21:29.613Z,20.87
2018-04-18T17:24:03.628Z,20.89
2018-04-18T17:26:36.889Z,21.09
2018-04-18T17:29:10.159Z,20.90
2018-04-18T17:31:43.430Z,20.75
2018-04-18T17:34:17.465Z,20.92
2018-04-18T17:36:50.725Z,21.01
2018-04-18T17:39:24.008Z,21.14
2018-04-18T17:41:57.260Z,21.42
2018-04-18T17:44:30.542Z,21.76
2018-04-18T17:47:03.796Z,22.11
2018-04-18T17:49:37.067Z,22.32
2018-04-18T17:52:10.340Z,23.84
2018-04-18T17:54:43.620Z,23.34
2018-04-18T17:57:16.883Z,23.48
2018-04-18T17:59:50.153Z,23.77
2018-04-18T18:02:23.416Z,24.03
2018-04-18T18:04:56.688Z,24.04
2018-04-18T18:07:29.948Z,24.22
2018-04-18T18:10:03.259Z,24.41
2018-04-18T18:12:37.291Z,25.03
2018-04-18T18:15:10.570Z,24.81
2018-04-18T18:17:44.583Z,25.02
2018-04-18T18:20:18.628Z,25.24
2018-04-18T18:22:51.886Z,25.17
2018-04-18T18:25:25.936Z,25.57
2018-04-18T18:27:59.194Z,25.88
2018-04-18T18:30:33.237Z,25.93
2018-04-18T18:33:06.713Z,26.48
2018-04-18T18:35:40.123Z,26.50
2018-04-18T18:38:13.713Z,26.76
2018-04-18T18:40:47.086Z,26.92
2018-04-18T18:43:20.502Z,26.72
2018-04-18T18:45:53.935Z,26.78
2018-04-18T18:48:27.315Z,26.79
2018-04-18T18:51:00.595Z,27.08
2018-04-18T18:53:34.621Z,27.31
2018-04-18T18:56:08.662Z,27.59
2018-04-18T18:58:41.912Z,27.71
2018-04-18T19:01:15.952Z,28.04
2018-04-18T19:03:49.218Z,27.92
2018-04-18T19:06:23.256Z,28.19
2018-04-18T19:08:56.542Z,28.39
2018-04-18T19:11:30.566Z,28.54
2018-04-18T19:14:03.822Z,28.69
2018-04-18T19:16:37.096Z,28.93
2018-04-18T19:19:10.357Z,29.22
2018-04-18T19:21:43.635Z,29.35
2018-04-18T19:24:16.901Z,29.62
2018-04-18T19:26:50.949Z,29.84
2018-04-18T19:29:24.212Z,30.01
2018-04-18T19:31:58.260Z,30.37
2018-04-18T19:34:31.549Z,30.55
2018-04-18T19:37:04.830Z,30.67
2018-04-18T19:39:38.084Z,30.96
2018-04-18T19:42:11.347Z,31.10
2018-04-18T19:44:44.620Z,31.62
2018-04-18T19:47:17.892Z,32.11
2018-04-18T19:49:51.921Z,32.02
2018-04-18T19:52:25.201Z,31.80
2018-04-18T19:54:59.223Z,31.93
2018-04-18T19:57:32.508Z,31.63
2018-04-18T20:00:06.537Z,31.81
2018-04-18T20:02:39.822Z,31.98
2018-04-18T20:05:13.095Z,32.24
2018-04-18T20:07:47.151Z,32.22
2018-04-18T20:10:20.389Z,32.42
2018-04-18T20:12:53.669Z,32.58
2018-04-18T20:15:26.932Z,32.66
2018-04-18T20:18:00.219Z,32.81
2018-04-18T20:20:33.488Z,32.86
2018-04-18T20:23:06.778Z,32.86
2018-04-18T20:25:40.800Z,32.93
2018-04-18T20:28:14.181Z,33.13
2018-04-18T20:30:47.371Z,33.30
2018-04-18T20:33:21.418Z,33.40
2018-04-18T20:35:54.660Z,33.42
2018-04-18T20:38:27.939Z,33.54
2018-04-18T20:41:01.181Z,33.59
2018-04-18T20:43:34.460Z,33.49
2018-04-18T20:46:07.725Z,33.90
2018-04-18T20:48:41.011Z,33.88
2018-04-18T20:51:14.263Z,33.93
2018-04-18T20:53:47.535Z,34.02
2018-04-18T20:56:21.555Z,33.99
2018-04-18T20:58:55.592Z,34.13
2018-04-18T21:01:28.847Z,33.86
2018-04-18T21:04:02.118Z,33.64
2018-04-18T21:06:35.412Z,33.67
2018-04-18T21:09:08.686Z,33.45
2018-04-18T21:11:41.933Z,33.47
2018-04-18T21:14:15.215Z,33.38
2018-04-18T21:16:49.238Z,33.23
2018-04-18T21:19:23.272Z,33.23
2018-04-18T21:21:56.544Z,33.06
2018-04-18T21:24:30.592Z,33.02
2018-04-18T21:27:03.874Z,33.20
2018-04-18T21:29:37.117Z,33.34
2018-04-18T21:32:10.516Z,33.40
2018-04-18T21:34:43.764Z,33.52
2018-04-18T21:37:17.044Z,33.62
2018-04-18T21:39:50.288Z,33.77
2018-04-18T21:42:23.680Z,34.11
2018-04-18T21:44:56.940Z,34.40
2018-04-18T21:47:30.223Z,34.62
2018-04-18T21:50:03.489Z,34.79
2018-04-18T21:52:36.753Z,35.13
2018-04-18T21:55:10.012Z,35.33
2018-04-18T21:57:43.281Z,35.44
2018-04-18T22:00:16.540Z,35.64
